• Join FlightAware (Why Join?)
  • Login
  • US Flag 
06:04PM EDT


 

Airport Tracker/Info


-or-


 

Live Flight TrackerFlight Track Log ✈ N465TP ✈ 22-Oct-2013 ✈ KCOD - KBIL

Flight Track Log - Related Links

Times and Time Zones

All times are in EDT time to prevent confusion due to time zone crossing. See the N465TP flight status page for this flight to view local times or setup timezone preferences in your user account.

Time Position Orientation Groundspeed Altitude Reporting Facility
EDT Latitude Longitude Course Direction KTS MPH feet Rate Location/Type
10:43AM 44.5622 -109.0017 14° North 146 168 8,600  Level Salt Lake Center
10:44AM 44.6056 -108.9867 14° North 154 177 10,000 1,380 Climbing Salt Lake Center
10:45AM 44.6481 -108.9700 16° North 157 181 11,500 1,560 Climbing Salt Lake Center
10:46AM 44.6978 -108.9519 14° North 156 180 13,300 1,440 Climbing Salt Lake Center
10:47AM 44.7397 -108.9358 15° North 155 178 14,500 720 Climbing Salt Lake Center
10:48AM 44.7872 -108.9178 15° North 168 193 14,900 180 Climbing Salt Lake Center
10:49AM 44.8436 -108.8981 14° North 193 222 14,900  Level Salt Lake Center
10:50AM 44.9014 -108.8783 14° North 209 241 14,900  Level Salt Lake Center
10:51AM 44.9567 -108.8578 15° North 207 238 15,000  Climbing Salt Lake Center
10:52AM 45.0133 -108.8375 14° North 207 238 15,000  Level Salt Lake Center
10:53AM 45.0797 -108.8128 15° North 207 238 15,000  Level Salt Lake Center
10:54AM 45.1322 -108.7928 15° North 206 237 15,000  Level Salt Lake Center
10:55AM 45.1933 -108.7700 15° North 207 238 15,000  Level Salt Lake Center
10:56AM 45.2472 -108.7364 24° Northeast 214 246 15,000  Level Salt Lake Center
10:57AM 45.3044 -108.6981 25° Northeast 214 246 15,000  Level Salt Lake Center
10:58AM 45.3547 -108.6664 24° Northeast 203 234 15,000 -60 Level Salt Lake Center
10:59AM 45.4097 -108.6317 24° Northeast 200 230 14,900 -780 Descending Salt Lake Center
11:00AM 45.4625 -108.5981 24° Northeast 207 238 13,500 -1,500 Descending Salt Lake Center
11:02AM 45.5172 -108.5633 24° Northeast 202 232 11,900 -1,500 Descending Salt Lake Center
11:03AM 45.5683 -108.5353 21° North 202 232 10,400 -1,500 Descending Salt Lake Center
11:04AM 45.6294 -108.5272 North 206 237 8,800 -1,500 Descending Salt Lake Center
11:05AM 45.6831 -108.5144 North 199 229 7,300 -1,620 Descending Salt Lake Center
11:06AM 45.7375 -108.5039 North 187 215 5,500 -1,440 Descending Salt Lake Center
11:07AM 45.7811 -108.4956 North 157 181 4,400 -1,020 Descending Salt Lake Center
11:08AM 45.8036 -108.5219 321° Northwest 100 115 3,400 -1,020 Descending Salt Lake Center
11:10AM 45.8077 -108.5429 246° West  Level Estimated